Time;durP1;ratioP1;P1;durP2;ratioP2;P2;SDS_P1;SDS_P2;PMS_P1;PMS_P2;Temp;Humidity;BMP_temperature;BMP_pressure;BME280_temperature;BME280_humidity;BME280_pressure;Samples;Min_cycle;Max_cycle;Signal;HPM_P1;HPM_P2
2022/09/12 19:03:00;;;;;;;9.38;3.40;;;;;;;19.52;100.00;100941.19;5093134;27;20401;-74
2022/09/12 19:05:27;;;;;;;9.23;3.72;;;;;;;19.55;100.00;100940.59;5089912;28;20040;-73
2022/09/12 19:07:52;;;;;;;6.40;3.45;;;;;;;19.51;100.00;100936.78;5080132;28;20086;-73
2022/09/12 19:10:18;;;;;;;9.05;3.40;;;;;;;19.48;100.00;100931.84;5068659;28;20025;-74
2022/09/12 19:13:02;;;;;;;7.30;3.90;;;;;;;19.48;100.00;100931.84;5069184;28;20066;-77
2022/09/12 19:15:28;;;;;;;7.57;3.83;;;;;;;19.37;100.00;100922.03;5048709;28;20044;-77
2022/09/12 19:17:54;;;;;;;5.82;3.58;;;;;;;19.37;100.00;100919.28;5060824;28;20111;-77
2022/09/12 19:20:19;;;;;;;6.72;3.67;;;;;;;19.31;100.00;100915.75;5067477;28;20066;-74
2022/09/12 19:22:47;;;;;;;8.82;3.60;;;;;;;19.31;100.00;100915.75;5069087;28;20024;-74
2022/09/12 19:25:12;;;;;;;7.63;3.67;;;;;;;19.28;100.00;100916.34;5066671;28;20043;-75
2022/09/12 19:27:38;;;;;;;9.57;4.00;;;;;;;19.25;100.00;100906.72;5069042;28;20432;-73
2022/09/12 19:30:04;;;;;;;10.32;3.88;;;;;;;19.23;100.00;100903.44;5069114;28;20025;-76
2022/09/12 19:32:29;;;;;;;9.18;4.20;;;;;;;19.23;100.00;100911.66;5068577;28;20025;-77
2022/09/12 19:34:54;;;;;;;11.30;3.75;;;;;;;19.20;100.00;100923.19;5063646;28;20469;-74
2022/09/12 19:37:20;;;;;;;8.23;3.97;;;;;;;19.18;100.00;100928.16;5068642;28;20025;-75
2022/09/12 19:39:45;;;;;;;6.85;3.35;;;;;;;19.16;100.00;100919.41;5068520;28;20036;-75
2022/09/12 19:42:11;;;;;;;9.32;4.00;;;;;;;19.09;100.00;100910.66;5067057;28;20028;-74
2022/09/12 19:44:37;;;;;;;9.32;3.92;;;;;;;19.06;100.00;100905.72;5053391;28;20024;-76
2022/09/12 19:47:02;;;;;;;7.93;3.92;;;;;;;19.05;100.00;100907.66;5067109;28;20589;-76
2022/09/12 19:49:27;;;;;;;7.13;3.40;;;;;;;19.03;100.00;100914.50;5083946;28;20083;-76
2022/09/12 19:51:53;;;;;;;9.07;3.97;;;;;;;18.99;100.00;100918.91;5057677;28;20033;-76
2022/09/12 19:54:18;;;;;;;6.88;3.75;;;;;;;18.87;100.00;100914.56;5064544;28;20449;-76
2022/09/12 19:56:43;;;;;;;10.13;4.07;;;;;;;18.87;100.00;100922.81;5068447;28;20028;-77
2022/09/12 19:59:09;;;;;;;8.73;3.95;;;;;;;18.84;100.00;100917.84;5067839;28;20024;-75
2022/09/12 20:01:35;;;;;;;6.88;4.20;;;;;;;18.78;100.00;100907.97;5062461;28;20036;-74
2022/09/12 20:04:01;;;;;;;7.60;3.67;;;;;;;18.71;100.00;100907.47;5044766;28;20108;-74
2022/09/12 20:06:27;;;;;;;8.57;4.10;;;;;;;18.72;100.00;100909.09;5034598;28;20026;-75
2022/09/12 20:08:53;;;;;;;8.52;3.97;;;;;;;18.69;100.00;100901.41;5044125;28;20056;-75
2022/09/12 20:11:22;;;;;;;7.70;3.53;;;;;;;18.58;100.00;100885.03;5041111;28;20454;-76
2022/09/12 20:13:47;;;;;;;9.50;3.75;;;;;;;18.61;100.00;100891.84;5033624;28;20021;-77
2022/09/12 20:16:18;;;;;;;9.02;4.38;;;;;;;18.55;100.00;100893.78;5034692;28;20036;-74
2022/09/12 20:18:51;;;;;;;8.50;4.20;;;;;;;18.51;100.00;100886.38;5033667;28;20030;-77
2022/09/12 20:21:19;;;;;;;8.40;3.97;;;;;;;18.47;100.00;100882.59;5034615;28;20152;-75
2022/09/12 20:23:45;;;;;;;8.82;4.07;;;;;;;18.41;100.00;100881.75;5034946;28;20036;-75
2022/09/12 20:26:10;;;;;;;8.57;3.88;;;;;;;18.34;100.00;100887.53;5046274;28;20029;-77
2022/09/12 20:28:37;;;;;;;7.10;3.78;;;;;;;18.38;100.00;100883.13;5054888;28;20368;-75
2022/09/12 20:31:05;;;;;;;7.75;3.50;;;;;;;18.34;100.00;100876.59;5040375;28;20039;-75
2022/09/12 20:33:31;;;;;;;9.00;4.03;;;;;;;18.29;100.00;100878.50;5034840;28;20029;-75
2022/09/12 20:36:01;;;;;;;7.75;3.95;;;;;;;18.23;100.00;100875.75;5034592;28;20032;-75
2022/09/12 20:38:26;;;;;;;9.20;3.95;;;;;;;18.20;100.00;100870.81;5034193;28;20116;-75
2022/09/12 20:40:51;;;;;;;6.32;3.90;;;;;;;18.20;100.00;100880.97;5034571;28;20057;-75
2022/09/12 20:43:17;;;;;;;8.40;4.03;;;;;;;18.18;100.00;100883.19;5052852;28;20040;-75
2022/09/12 20:45:42;;;;;;;10.50;4.28;;;;;;;18.16;100.00;100877.13;5054704;28;20060;-75
2022/09/12 20:48:07;;;;;;;8.25;4.22;;;;;;;18.11;100.00;100875.22;5054178;28;20025;-75
2022/09/12 20:50:32;;;;;;;7.72;3.90;;;;;;;18.05;100.00;100873.59;5052956;28;20021;-75
2022/09/12 20:53:00;;;;;;;8.32;4.50;;;;;;;18.02;100.00;100864.00;5053127;28;20032;-75
2022/09/12 20:55:25;;;;;;;9.05;4.35;;;;;;;17.95;100.00;100874.44;5053851;28;20025;-75
2022/09/12 20:57:50;;;;;;;11.02;4.18;;;;;;;17.92;100.00;100874.13;5054136;28;20021;-76
2022/09/12 21:00:16;;;;;;;9.38;4.18;;;;;;;17.89;100.00;100873.59;5052255;28;20409;-75
2022/09/12 21:02:41;;;;;;;7.22;3.95;;;;;;;17.85;100.00;100871.66;5050740;28;20048;-75
2022/09/12 21:05:06;;;;;;;8.55;4.50;;;;;;;17.84;100.00;100881.75;5054120;28;20031;-75
2022/09/12 21:07:32;;;;;;;6.55;3.90;;;;;;;17.84;100.00;100879.03;5053882;28;20467;-75
2022/09/12 21:09:57;;;;;;;7.60;4.40;;;;;;;17.85;100.00;100875.19;5046492;28;20053;-75
2022/09/12 21:12:22;;;;;;;8.27;4.13;;;;;;;17.85;100.00;100858.78;5033855;28;20370;-75
2022/09/12 21:14:47;;;;;;;8.85;4.22;;;;;;;17.84;100.00;100856.31;5032631;28;20028;-75
2022/09/12 21:17:13;;;;;;;9.50;4.53;;;;;;;17.79;100.00;100854.41;5045303;28;20079;-75
2022/09/12 21:19:38;;;;;;;11.18;4.63;;;;;;;17.81;100.00;100865.06;5052187;28;20051;-75
2022/09/12 21:22:03;;;;;;;12.25;5.20;;;;;;;17.83;100.00;100879.28;5032578;28;20139;-75
2022/09/12 21:24:28;;;;;;;12.35;5.95;;;;;;;17.76;100.00;100879.56;5033667;28;20450;-75
2022/09/12 21:26:54;;;;;;;13.18;6.97;;;;;;;17.84;100.00;100886.41;5033808;28;20493;-75
2022/09/12 21:29:19;;;;;;;13.95;7.70;;;;;;;17.83;100.00;100893.81;5033623;28;20029;-75
2022/09/12 21:31:44;;;;;;;13.55;6.20;;;;;;;17.84;100.00;100898.19;5033575;28;20116;-75
2022/09/12 21:34:10;;;;;;;15.13;6.65;;;;;;;17.86;100.00;100917.91;5044688;28;20049;-75
2022/09/12 21:36:35;;;;;;;10.63;5.30;;;;;;;17.89;100.00;100911.09;5053177;28;20055;-75
2022/09/12 21:39:01;;;;;;;17.55;5.43;;;;;;;17.94;100.00;100904.81;5053429;28;20477;-75
2022/09/12 21:41:27;;;;;;;9.80;4.28;;;;;;;17.91;100.00;100899.88;5033776;28;20040;-75
2022/09/12 21:43:52;;;;;;;12.38;4.43;;;;;;;17.96;100.00;100897.94;5033420;28;20524;-75
2022/09/12 21:46:18;;;;;;;7.78;4.20;;;;;;;17.95;100.00;100903.69;5053013;28;20021;-75
2022/09/12 21:48:43;;;;;;;8.07;4.13;;;;;;;17.94;100.00;100904.81;5050207;28;20052;-75
2022/09/12 21:51:08;;;;;;;8.00;4.13;;;;;;;17.95;100.00;100914.66;5057679;28;20037;-75
2022/09/12 21:53:34;;;;;;;10.32;4.20;;;;;;;17.94;100.00;100919.31;5032204;28;20021;-75
2022/09/12 21:56:04;;;;;;;9.98;4.38;;;;;;;17.95;100.00;100911.91;5049064;28;20025;-75
2022/09/12 21:58:30;;;;;;;12.18;4.65;;;;;;;17.97;100.00;100915.22;5033049;28;20036;-75
2022/09/12 22:00:55;;;;;;;7.05;4.32;;;;;;;17.94;100.00;100916.56;5029416;28;20041;-75
2022/09/12 22:03:21;;;;;;;8.60;4.13;;;;;;;17.96;100.00;100913.56;5048636;28;20374;-75
2022/09/12 22:05:50;;;;;;;8.40;4.22;;;;;;;17.99;100.00;100913.03;5038098;28;20029;-75
2022/09/12 22:08:16;;;;;;;9.70;4.85;;;;;;;17.96;100.00;100902.63;5031476;28;20022;-75
2022/09/12 22:10:42;;;;;;;9.93;4.10;;;;;;;17.93;100.00;100914.91;5032969;28;20118;-75
2022/09/12 22:13:07;;;;;;;7.18;4.13;;;;;;;17.92;100.00;100913.31;5032592;28;20045;-75
2022/09/12 22:15:32;;;;;;;5.97;4.10;;;;;;;17.92;100.00;100901.50;5061669;28;20043;-75
2022/09/12 22:17:58;;;;;;;7.18;3.97;;;;;;;17.95;100.00;100909.16;5063257;28;20029;-75
2022/09/12 22:20:23;;;;;;;7.13;4.30;;;;;;;17.91;100.00;100897.16;5045313;28;20029;-75
2022/09/12 22:25:33;;;;;;;8.15;4.45;;;;;;;17.95;100.00;100903.69;5031620;28;20111;-75
2022/09/12 22:28:01;;;;;;;12.77;4.93;;;;;;;17.89;100.00;100897.41;5032319;28;20450;-75
2022/09/12 22:30:26;;;;;;;15.05;4.63;;;;;;;17.94;100.00;100905.63;5030197;28;20049;-75
2022/09/12 22:32:52;;;;;;;8.00;4.40;;;;;;;17.93;100.00;100892.22;5032284;28;20902;-75
2022/09/12 22:35:17;;;;;;;11.23;4.68;;;;;;;17.92;100.00;100896.03;5032915;28;20056;-75
2022/09/12 22:37:43;;;;;;;10.98;4.40;;;;;;;17.92;100.00;100891.41;5047628;28;20112;-75
2022/09/12 22:40:10;;;;;;;9.02;4.50;;;;;;;17.91;100.00;100892.47;5036520;28;20031;-75
2022/09/12 22:42:36;;;;;;;7.78;4.43;;;;;;;17.88;100.00;100882.88;5063205;28;20021;-75
2022/09/12 22:45:07;;;;;;;11.20;4.43;;;;;;;17.89;100.00;100889.22;5046653;28;20028;-75
2022/09/12 22:47:33;;;;;;;8.23;4.70;;;;;;;17.85;100.00;100877.94;5033443;28;20036;-75
2022/09/12 22:49:58;;;;;;;8.10;4.63;;;;;;;17.86;100.00;100876.00;5032576;28;20436;-75
2022/09/12 22:52:23;;;;;;;6.97;4.07;;;;;;;17.84;100.00;100872.72;5031983;28;20512;-75
2022/09/12 22:54:49;;;;;;;8.55;4.45;;;;;;;17.77;100.00;100873.00;5039249;28;20020;-75
2022/09/12 22:57:14;;;;;;;6.40;4.63;;;;;;;17.79;100.00;100879.03;5048444;28;20037;-75
2022/09/12 22:59:39;;;;;;;10.02;4.75;;;;;;;17.78;100.00;100880.13;5044784;28;20044;-75
2022/09/12 23:02:08;;;;;;;8.50;5.10;;;;;;;17.78;100.00;100876.56;5037686;28;20076;-75
2022/09/12 23:04:33;;;;;;;7.63;4.60;;;;;;;17.76;100.00;100868.63;5035598;28;20083;-75
2022/09/12 23:07:00;;;;;;;9.95;4.60;;;;;;;17.73;100.00;100866.44;5032110;28;20021;-75
2022/09/12 23:09:25;;;;;;;7.13;4.88;;;;;;;17.74;100.00;100857.16;5043275;28;20056;-75
2022/09/12 23:11:51;;;;;;;9.02;5.30;;;;;;;17.69;100.00;100860.69;5035702;28;20108;-75
2022/09/12 23:14:17;;;;;;;8.63;5.68;;;;;;;17.71;100.00;100857.69;5032031;28;20060;-75
2022/09/12 23:16:42;;;;;;;8.98;5.47;;;;;;;17.69;100.00;100854.38;5030371;28;20022;-75
2022/09/12 23:19:10;;;;;;;8.10;5.60;;;;;;;17.69;100.00;100846.19;5031318;28;20033;-77
2022/09/12 23:21:46;;;;;;;8.77;5.68;;;;;;;17.67;100.00;100843.72;5040941;28;20036;-76
2022/09/12 23:24:12;;;;;;;9.75;5.22;;;;;;;17.61;100.00;100833.03;5051301;28;20468;-76
2022/09/12 23:26:40;;;;;;;9.60;5.75;;;;;;;17.67;100.00;100846.44;5047479;28;20018;-76
2022/09/12 23:29:08;;;;;;;11.50;5.70;;;;;;;17.69;100.00;100840.69;5045602;28;20030;-76
2022/09/12 23:31:37;;;;;;;9.45;5.93;;;;;;;17.68;100.00;100837.16;5030904;28;20075;-76
2022/09/12 23:34:05;;;;;;;9.00;5.65;;;;;;;17.65;100.00;100832.22;5030371;28;20082;-76
2022/09/12 23:36:42;;;;;;;8.60;5.40;;;;;;;17.59;100.00;100833.31;5049660;28;20090;-76
2022/09/12 23:39:08;;;;;;;9.40;5.75;;;;;;;17.62;100.00;100834.66;5052774;28;20051;-76
2022/09/12 23:41:37;;;;;;;7.60;5.82;;;;;;;17.59;100.00;100841.53;5049776;28;20485;-76
2022/09/12 23:44:10;;;;;;;10.32;6.50;;;;;;;17.65;100.00;100836.88;5036752;28;20473;-75
2022/09/12 23:47:03;;;;;;;;;;;;;;;;;;;;;
2022/09/12 23:49:44;;;;;;;8.88;6.13;;;;;;;17.59;100.00;100840.69;5053857;28;20027;-76
2022/09/12 23:52:33;;;;;;;12.40;6.43;;;;;;;17.60;100.00;100836.88;5034045;28;20113;-75
2022/09/12 23:55:24;;;;;;;10.15;6.13;;;;;;;17.60;100.00;100825.94;5050159;28;20303;-76
2022/09/12 23:58:22;;;;;;;9.48;5.90;;;;;;;17.63;100.00;100822.63;5033835;28;20049;-76
